Tajima Maru — JD2342 — position and weather

sailwx.info

Track history (hours):
 
Tides and Currents Weather Stations Pressure Air Temp Water Temp Dewpoint Dewpoint Depression Visibility Wind Speed Wind Dir Waves Ship Positions

Tajima Maru

Last reported at 2017-Nov-20 00:30 UTC. Time now 2017-Nov-20 20:56 UTC.
Position N 34°33' E 135°27'.

Length 42 m; draft 3.2 m.

Type: Tug. MMSI: 431000118.

Date/timePositionNaut miles runAvg speedWind from/ knotsBaromVisibWave heightAir tempDewpointWater temp
2017-Nov-20 00:30N 34°33' E 135°27'0 0.0
2017-Nov-20 00:00N 34°33' E 135°27'0 0.0
2017-Nov-19 23:30N 34°33' E 135°27'0 0.0
2017-Nov-19 22:59N 34°33' E 135°27'0 0.0
2017-Nov-19 22:30N 34°33' E 135°27'0 0.0
2017-Nov-19 10:18N 34°33' E 135°27'2 6.6
2017-Nov-19 10:00N 34°33' E 135°24'3 2.8
2017-Nov-19 09:06N 34°31' E 135°23'0 0.8
2017-Nov-19 08:46N 34°31' E 135°23'0 0.0
2017-Nov-19 01:28N 34°31' E 135°23'1 2.0
2017-Nov-19 00:55N 34°32' E 135°24'1 1.1
2017-Nov-19 00:27N 34°31' E 135°25'0 0.0
2017-Nov-18 23:55N 34°31' E 135°25'0 0.1
2017-Nov-18 23:30N 34°31' E 135°25'1 2.2
2017-Nov-18 22:57N 34°31' E 135°24'1 1.0
2017-Nov-18 22:18N 34°31' E 135°23'2 6.2
2017-Nov-18 21:59N 34°33' E 135°22'0 0.2
2017-Nov-18 21:27N 34°33' E 135°22'3 6.6
2017-Nov-18 21:00N 34°33' E 135°26'1 1.5
2017-Nov-18 20:30N 34°33' E 135°27'0 0.0
2017-Nov-17 15:25N 34°33' E 135°27'3 7.1
2017-Nov-17 15:00N 34°33' E 135°23'612.8
2017-Nov-17 14:30N 34°30' E 135°16'11 3.3
2017-Nov-17 11:21N 34°29' E 135°04'411.5
2017-Nov-17 10:58N 34°33' E 135°06'4 7.9
2017-Nov-17 10:29N 34°36' E 135°03'2 0.5
2017-Nov-17 05:36N 34°37' E 135°01'2 7.0
2017-Nov-17 05:22N 34°36' E 135°03'3 8.0
2017-Nov-17 05:00N 34°36' E 135°07'5 9.5
2017-Nov-17 04:30N 34°35' E 135°12'510.2
2017-Nov-17 03:59N 34°34' E 135°18'2 0.9
2017-Nov-17 01:33N 34°33' E 135°21'0 6.5
2017-Nov-17 01:30N 34°33' E 135°20'5 4.7
2017-Nov-17 00:26N 34°33' E 135°27'0 0.0
2017-Nov-17 00:00N 34°33' E 135°27'0 0.0
2017-Nov-16 23:30N 34°33' E 135°27'0 0.0
2017-Nov-16 23:00N 34°33' E 135°27'0 0.0
2017-Nov-16 22:30N 34°33' E 135°27'0 0.0
2017-Nov-16 00:25N 34°33' E 135°27'1 2.0
2017-Nov-15 23:49N 34°33' E 135°25'412.4
2017-Nov-15 23:30N 34°34' E 135°21'713.6
2017-Nov-15 23:00N 34°35' E 135°12'713.7
2017-Nov-15 22:30N 34°36' E 135°04'7 4.9
2017-Nov-15 21:00N 34°36' E 134°55'612.3
2017-Nov-15 20:30N 34°36' E 135°03'5 9.7
2017-Nov-15 20:00N 34°35' E 135°08'2 4.7
2017-Nov-15 19:31N 34°32' E 135°08'2310.3
2017-Nov-15 17:18N 34°11' E 134°59'1 3.1
2017-Nov-15 16:54N 34°11' E 135°01'410.2
2017-Nov-15 16:30N 34°13' E 135°05'3 5.2
2017-Nov-15 16:00N 34°13' E 135°09'0 0.0
2017-Nov-15 15:30N 34°13' E 135°09'0 0.0
2017-Nov-15 15:00N 34°13' E 135°09'0 0.0
2017-Nov-15 14:30N 34°13' E 135°09'0 0.0
2017-Nov-15 14:00N 34°13' E 135°09'0 0.0
2017-Nov-15 13:30N 34°13' E 135°09'0 0.0
2017-Nov-15 13:00N 34°13' E 135°09'0 0.0
2017-Nov-15 12:30N 34°13' E 135°09'0 0.0
2017-Nov-15 12:01N 34°13' E 135°09'0 0.0
2017-Nov-15 11:30N 34°13' E 135°09'0 0.0
2017-Nov-15 11:00N 34°13' E 135°09'0 0.0
2017-Nov-15 10:30N 34°13' E 135°09'0 0.0
2017-Nov-15 10:00N 34°13' E 135°09'0 0.0
2017-Nov-15 09:30N 34°13' E 135°09'0 0.0
2017-Nov-15 09:00N 34°13' E 135°09'0 0.0
2017-Nov-15 08:30N 34°13' E 135°09'0 0.0
2017-Nov-15 08:00N 34°13' E 135°09'0 0.0
2017-Nov-15 07:30N 34°13' E 135°09'0 0.0
2017-Nov-15 07:00N 34°13' E 135°09'0 0.0
2017-Nov-15 06:30N 34°13' E 135°09'0 0.0
2017-Nov-15 06:00N 34°13' E 135°09'0 0.0
2017-Nov-15 05:30N 34°13' E 135°09'0 0.0
2017-Nov-15 05:00N 34°13' E 135°09'0 0.0
2017-Nov-15 04:31N 34°13' E 135°09'0 0.0
2017-Nov-15 04:00N 34°13' E 135°09'0 0.0
2017-Nov-15 03:30N 34°13' E 135°09'0 0.0
2017-Nov-15 03:00N 34°13' E 135°09'0 0.0
2017-Nov-15 02:30N 34°13' E 135°09'0 0.0
2017-Nov-15 02:00N 34°13' E 135°09'3 5.8
2017-Nov-15 01:30N 34°14' E 135°06'13 9.2
2017-Nov-15 00:04N 34°26' E 135°11'110.3
2017-Nov-14 23:58N 34°27' E 135°12'610.2
2017-Nov-14 23:21N 34°31' E 135°19'410.0
2017-Nov-14 22:56N 34°33' E 135°23'1 2.5
2017-Nov-14 22:30N 34°32' E 135°24'1 2.8
2017-Nov-14 22:00N 34°33' E 135°23'0 0.4
2017-Nov-14 21:28N 34°33' E 135°23'2 5.1
2017-Nov-14 21:01N 34°33' E 135°26'0 0.0
2017-Nov-14 06:47N 34°33' E 135°27'1 0.6
2017-Nov-14 05:42N 34°33' E 135°26'0 0.4
2017-Nov-14 05:23N 34°33' E 135°26'1 2.8
2017-Nov-14 05:00N 34°33' E 135°24'3 6.8
2017-Nov-14 04:30N 34°34' E 135°20'1 1.5
2017-Nov-14 03:56N 34°34' E 135°21'4 3.9
2017-Nov-14 02:49N 34°33' E 135°27'0 0.0
2017-Nov-14 01:49N 34°33' E 135°27'0 0.0
2017-Nov-14 00:50N 34°33' E 135°27'0 0.0
2017-Nov-14 00:29N 34°33' E 135°27'0 0.0
2017-Nov-13 23:59N 34°33' E 135°27'3 6.4
2017-Nov-13 23:30N 34°34' E 135°23'1 1.1
2017-Nov-13 22:25N 34°34' E 135°24'1 2.0
2017-Nov-13 21:58N 34°33' E 135°26'  
2017-Nov-10 10:25N 34°33' E 135°27'0 0.0
2017-Nov-10 10:00N 34°33' E 135°27'0 0.0
2017-Nov-10 09:30N 34°33' E 135°27'0 0.0
2017-Nov-10 09:00N 34°33' E 135°27'0 0.0
2017-Nov-10 08:30N 34°33' E 135°27'0 0.0
2017-Nov-10 08:00N 34°33' E 135°27'0 0.0
2017-Nov-10 07:29N 34°33' E 135°27'3 5.4
2017-Nov-10 07:00N 34°33' E 135°23'612.6
2017-Nov-10 06:30N 34°30' E 135°17'8 2.8
2017-Nov-10 03:40N 34°27' E 135°08'214.0
2017-Nov-10 03:30N 34°29' E 135°09'713.1
2017-Nov-10 02:57N 34°32' E 135°17'4 9.0
2017-Nov-10 02:29N 34°33' E 135°22'2 2.0
2017-Nov-10 01:21N 34°33' E 135°25'1 3.4
2017-Nov-10 00:58N 34°33' E 135°27'0 0.0
2017-Nov-10 00:30N 34°33' E 135°27'  
Track history (hours):
 
Tides and Currents Weather Stations Pressure Air Temp Water Temp Dewpoint Dewpoint Depression Visibility Wind Speed Wind Dir Waves Ship Positions

Tajima Maru

Last reported at 2017-Nov-20 00:30 UTC. Time now 2017-Nov-20 20:56 UTC.
Position N 34°33' E 135°27'.

Length 42 m; draft 3.2 m.

Type: Tug. MMSI: 431000118.

Date/timePositionNaut miles runAvg speedWind from/ knotsBaromVisibWave heightAir tempDewpointWater temp
2017-Nov-20 00:30N 34°33' E 135°27'0 0.0
2017-Nov-20 00:00N 34°33' E 135°27'0 0.0
2017-Nov-19 23:30N 34°33' E 135°27'0 0.0
2017-Nov-19 22:59N 34°33' E 135°27'0 0.0
2017-Nov-19 22:30N 34°33' E 135°27'0 0.0
2017-Nov-19 10:18N 34°33' E 135°27'2 6.6
2017-Nov-19 10:00N 34°33' E 135°24'3 2.8
2017-Nov-19 09:06N 34°31' E 135°23'0 0.8
2017-Nov-19 08:46N 34°31' E 135°23'0 0.0
2017-Nov-19 01:28N 34°31' E 135°23'1 2.0
2017-Nov-19 00:55N 34°32' E 135°24'1 1.1
2017-Nov-19 00:27N 34°31' E 135°25'0 0.0
2017-Nov-18 23:55N 34°31' E 135°25'0 0.1
2017-Nov-18 23:30N 34°31' E 135°25'1 2.2
2017-Nov-18 22:57N 34°31' E 135°24'1 1.0
2017-Nov-18 22:18N 34°31' E 135°23'2 6.2
2017-Nov-18 21:59N 34°33' E 135°22'0 0.2
2017-Nov-18 21:27N 34°33' E 135°22'3 6.6
2017-Nov-18 21:00N 34°33' E 135°26'1 1.5
2017-Nov-18 20:30N 34°33' E 135°27'0 0.0
2017-Nov-17 15:25N 34°33' E 135°27'3 7.1
2017-Nov-17 15:00N 34°33' E 135°23'612.8
2017-Nov-17 14:30N 34°30' E 135°16'11 3.3
2017-Nov-17 11:21N 34°29' E 135°04'411.5
2017-Nov-17 10:58N 34°33' E 135°06'4 7.9
2017-Nov-17 10:29N 34°36' E 135°03'2 0.5
2017-Nov-17 05:36N 34°37' E 135°01'2 7.0
2017-Nov-17 05:22N 34°36' E 135°03'3 8.0
2017-Nov-17 05:00N 34°36' E 135°07'5 9.5
2017-Nov-17 04:30N 34°35' E 135°12'510.2
2017-Nov-17 03:59N 34°34' E 135°18'2 0.9
2017-Nov-17 01:33N 34°33' E 135°21'0 6.5
2017-Nov-17 01:30N 34°33' E 135°20'5 4.7
2017-Nov-17 00:26N 34°33' E 135°27'0 0.0
2017-Nov-17 00:00N 34°33' E 135°27'0 0.0
2017-Nov-16 23:30N 34°33' E 135°27'0 0.0
2017-Nov-16 23:00N 34°33' E 135°27'0 0.0
2017-Nov-16 22:30N 34°33' E 135°27'0 0.0
2017-Nov-16 00:25N 34°33' E 135°27'1 2.0
2017-Nov-15 23:49N 34°33' E 135°25'412.4
2017-Nov-15 23:30N 34°34' E 135°21'713.6
2017-Nov-15 23:00N 34°35' E 135°12'713.7
2017-Nov-15 22:30N 34°36' E 135°04'7 4.9
2017-Nov-15 21:00N 34°36' E 134°55'612.3
2017-Nov-15 20:30N 34°36' E 135°03'5 9.7
2017-Nov-15 20:00N 34°35' E 135°08'2 4.7
2017-Nov-15 19:31N 34°32' E 135°08'2310.3
2017-Nov-15 17:18N 34°11' E 134°59'1 3.1
2017-Nov-15 16:54N 34°11' E 135°01'410.2
2017-Nov-15 16:30N 34°13' E 135°05'3 5.2
2017-Nov-15 16:00N 34°13' E 135°09'0 0.0
2017-Nov-15 15:30N 34°13' E 135°09'0 0.0
2017-Nov-15 15:00N 34°13' E 135°09'0 0.0
2017-Nov-15 14:30N 34°13' E 135°09'0 0.0
2017-Nov-15 14:00N 34°13' E 135°09'0 0.0
2017-Nov-15 13:30N 34°13' E 135°09'0 0.0
2017-Nov-15 13:00N 34°13' E 135°09'0 0.0
2017-Nov-15 12:30N 34°13' E 135°09'0 0.0
2017-Nov-15 12:01N 34°13' E 135°09'0 0.0
2017-Nov-15 11:30N 34°13' E 135°09'0 0.0
2017-Nov-15 11:00N 34°13' E 135°09'0 0.0
2017-Nov-15 10:30N 34°13' E 135°09'0 0.0
2017-Nov-15 10:00N 34°13' E 135°09'0 0.0
2017-Nov-15 09:30N 34°13' E 135°09'0 0.0
2017-Nov-15 09:00N 34°13' E 135°09'0 0.0
2017-Nov-15 08:30N 34°13' E 135°09'0 0.0
2017-Nov-15 08:00N 34°13' E 135°09'0 0.0
2017-Nov-15 07:30N 34°13' E 135°09'0 0.0
2017-Nov-15 07:00N 34°13' E 135°09'0 0.0
2017-Nov-15 06:30N 34°13' E 135°09'0 0.0
2017-Nov-15 06:00N 34°13' E 135°09'0 0.0
2017-Nov-15 05:30N 34°13' E 135°09'0 0.0
2017-Nov-15 05:00N 34°13' E 135°09'0 0.0
2017-Nov-15 04:31N 34°13' E 135°09'0 0.0
2017-Nov-15 04:00N 34°13' E 135°09'0 0.0
2017-Nov-15 03:30N 34°13' E 135°09'0 0.0
2017-Nov-15 03:00N 34°13' E 135°09'0 0.0
2017-Nov-15 02:30N 34°13' E 135°09'0 0.0
2017-Nov-15 02:00N 34°13' E 135°09'3 5.8
2017-Nov-15 01:30N 34°14' E 135°06'13 9.2
2017-Nov-15 00:04N 34°26' E 135°11'110.3
2017-Nov-14 23:58N 34°27' E 135°12'610.2
2017-Nov-14 23:21N 34°31' E 135°19'410.0
2017-Nov-14 22:56N 34°33' E 135°23'1 2.5
2017-Nov-14 22:30N 34°32' E 135°24'1 2.8
2017-Nov-14 22:00N 34°33' E 135°23'0 0.4
2017-Nov-14 21:28N 34°33' E 135°23'2 5.1
2017-Nov-14 21:01N 34°33' E 135°26'0 0.0
2017-Nov-14 06:47N 34°33' E 135°27'1 0.6
2017-Nov-14 05:42N 34°33' E 135°26'0 0.4
2017-Nov-14 05:23N 34°33' E 135°26'1 2.8
2017-Nov-14 05:00N 34°33' E 135°24'3 6.8
2017-Nov-14 04:30N 34°34' E 135°20'1 1.5
2017-Nov-14 03:56N 34°34' E 135°21'4 3.9
2017-Nov-14 02:49N 34°33' E 135°27'0 0.0
2017-Nov-14 01:49N 34°33' E 135°27'0 0.0
2017-Nov-14 00:50N 34°33' E 135°27'0 0.0
2017-Nov-14 00:29N 34°33' E 135°27'0 0.0
2017-Nov-13 23:59N 34°33' E 135°27'3 6.4
2017-Nov-13 23:30N 34°34' E 135°23'1 1.1
2017-Nov-13 22:25N 34°34' E 135°24'1 2.0
2017-Nov-13 21:58N 34°33' E 135°26'  
2017-Nov-10 10:25N 34°33' E 135°27'0 0.0
2017-Nov-10 10:00N 34°33' E 135°27'0 0.0
2017-Nov-10 09:30N 34°33' E 135°27'0 0.0
2017-Nov-10 09:00N 34°33' E 135°27'0 0.0
2017-Nov-10 08:30N 34°33' E 135°27'0 0.0
2017-Nov-10 08:00N 34°33' E 135°27'0 0.0
2017-Nov-10 07:29N 34°33' E 135°27'3 5.4
2017-Nov-10 07:00N 34°33' E 135°23'612.6
2017-Nov-10 06:30N 34°30' E 135°17'8 2.8
2017-Nov-10 03:40N 34°27' E 135°08'214.0
2017-Nov-10 03:30N 34°29' E 135°09'713.1
2017-Nov-10 02:57N 34°32' E 135°17'4 9.0
2017-Nov-10 02:29N 34°33' E 135°22'2 2.0
2017-Nov-10 01:21N 34°33' E 135°25'1 3.4
2017-Nov-10 00:58N 34°33' E 135°27'0 0.0
2017-Nov-10 00:30N 34°33' E 135°27'  

Dump ship's entire track history